Time;durP1;ratioP1;P1;durP2;ratioP2;P2;SDS_P1;SDS_P2;PMS_P1;PMS_P2;Temp;Humidity;BMP_temperature;BMP_pressure;BME280_temperature;BME280_humidity;BME280_pressure;Samples;Min_cycle;Max_cycle;Signal;HPM_P1;HPM_P2
2023/03/28 00:01:36;;;;;;;10.00;2.00;;;4.20;99.90;;;;;;5088322;28;20418;-70
2023/03/28 00:04:02;;;;;;;7.22;1.58;;;4.20;99.90;;;;;;5092276;28;20040;-70
2023/03/28 00:06:27;;;;;;;10.30;2.10;;;4.10;99.90;;;;;;5091203;28;20456;-70
2023/03/28 00:08:54;;;;;;;8.68;2.55;;;4.10;99.90;;;;;;5092778;28;20052;-70
2023/03/28 00:11:21;;;;;;;8.40;1.80;;;4.10;99.90;;;;;;5085464;28;20483;-70
2023/03/28 00:13:56;;;;;;;5.80;1.27;;;4.10;99.90;;;;;;5091100;28;20557;-70
2023/03/28 00:16:24;;;;;;;7.78;1.60;;;4.10;99.90;;;;;;5090466;28;20111;-70
2023/03/28 00:18:50;;;;;;;9.55;2.72;;;4.20;99.90;;;;;;5090819;28;20096;-70
2023/03/28 00:21:28;;;;;;;7.60;1.85;;;4.10;99.90;;;;;;5090152;28;20032;-70
2023/03/28 00:23:55;;;;;;;8.68;1.88;;;4.10;99.90;;;;;;5087227;28;20113;-70
2023/03/28 00:26:26;;;;;;;12.40;2.45;;;4.00;99.90;;;;;;5088059;28;20039;-70
2023/03/28 00:28:52;;;;;;;11.50;2.45;;;3.90;99.90;;;;;;5090555;28;20027;-70
2023/03/28 00:31:18;;;;;;;8.45;1.75;;;3.90;99.90;;;;;;5084735;28;20383;-70
2023/03/28 00:33:46;;;;;;;11.85;2.60;;;3.90;99.90;;;;;;5090002;28;20032;-70
2023/03/28 00:36:21;;;;;;;9.85;2.15;;;3.90;99.90;;;;;;5088296;28;20031;-70
2023/03/28 00:38:48;;;;;;;9.35;1.63;;;3.90;99.90;;;;;;5094666;28;20034;-70
2023/03/28 00:41:17;;;;;;;6.18;1.90;;;3.80;99.90;;;;;;5085874;28;20021;-70
2023/03/28 00:43:44;;;;;;;10.50;1.90;;;3.70;99.90;;;;;;5089978;28;20043;-69
2023/03/28 00:46:35;;;;;;;10.68;2.15;;;3.70;99.90;;;;;;5090077;28;20115;-70
2023/03/28 00:49:11;;;;;;;7.97;2.00;;;3.70;99.90;;;;;;5089125;28;20444;-70
2023/03/28 00:51:40;;;;;;;11.13;2.40;;;3.70;99.90;;;;;;5087693;28;20024;-70
2023/03/28 00:54:14;;;;;;;8.63;2.03;;;3.70;99.90;;;;;;5091287;28;20031;-70
2023/03/28 00:56:44;;;;;;;10.60;2.30;;;3.70;99.90;;;;;;5080419;28;20147;-70
2023/03/28 00:59:16;;;;;;;9.63;2.22;;;3.60;99.90;;;;;;5089042;28;20042;-70
2023/03/28 01:01:43;;;;;;;11.27;2.67;;;3.60;99.90;;;;;;5089998;28;20392;-70
2023/03/28 01:04:09;;;;;;;10.02;2.42;;;3.60;99.90;;;;;;5090758;28;20040;-70
2023/03/28 01:06:45;;;;;;;11.10;2.30;;;3.60;99.90;;;;;;5091125;28;20433;-70
2023/03/28 01:09:12;;;;;;;11.25;2.03;;;3.50;99.90;;;;;;5086768;28;20395;-71
2023/03/28 01:11:40;;;;;;;13.65;2.63;;;3.50;99.90;;;;;;5085387;28;20032;-70
2023/03/28 01:14:08;;;;;;;7.60;2.20;;;3.50;99.90;;;;;;5089824;28;20039;-70
2023/03/28 01:16:40;;;;;;;9.70;2.47;;;3.50;99.90;;;;;;5097254;28;20069;-70
2023/03/28 01:19:20;;;;;;;14.20;2.60;;;3.50;99.90;;;;;;5090932;28;20031;-70
2023/03/28 01:21:55;;;;;;;6.13;2.13;;;3.50;99.90;;;;;;5090531;28;20036;-70
2023/03/28 01:24:35;;;;;;;9.57;2.28;;;3.40;99.90;;;;;;5088743;28;20059;-70
2023/03/28 01:27:13;;;;;;;10.10;2.78;;;3.40;99.90;;;;;;5088479;28;20035;-70
2023/03/28 01:30:06;;;;;;;9.55;2.25;;;3.40;99.90;;;;;;5087188;28;20036;-70
2023/03/28 01:33:01;;;;;;;13.98;2.75;;;3.40;99.90;;;;;;5088749;28;20086;-70
2023/03/28 01:35:36;;;;;;;13.60;2.90;;;3.30;99.90;;;;;;5088341;28;20036;-70
2023/03/28 01:38:26;;;;;;;12.38;2.63;;;3.20;99.90;;;;;;5088573;28;20032;-70
2023/03/28 01:41:01;;;;;;;10.68;2.28;;;3.20;99.90;;;;;;5089520;28;20035;-70
2023/03/28 01:43:52;;;;;;;11.43;2.22;;;3.10;99.90;;;;;;5089036;28;20380;-70
2023/03/28 01:46:38;;;;;;;14.68;2.92;;;3.10;99.90;;;;;;5086948;28;20526;-70
2023/03/28 01:49:08;;;;;;;14.27;2.80;;;3.10;99.90;;;;;;5096877;28;20017;-71
2023/03/28 01:51:49;;;;;;;8.80;2.63;;;3.10;99.90;;;;;;5089632;28;20111;-70
2023/03/28 01:54:29;;;;;;;11.10;2.53;;;3.10;99.90;;;;;;5089590;28;20039;-70
2023/03/28 01:56:59;;;;;;;7.88;2.10;;;3.00;99.90;;;;;;5092318;28;20028;-70
2023/03/28 01:59:48;;;;;;;13.07;2.92;;;3.00;99.90;;;;;;5091881;28;20028;-70
2023/03/28 02:02:17;;;;;;;9.50;2.42;;;2.90;99.90;;;;;;5091804;28;20097;-69
2023/03/28 02:04:45;;;;;;;7.75;2.70;;;2.90;99.90;;;;;;5092252;28;20079;-69
2023/03/28 02:07:12;;;;;;;7.53;2.58;;;2.90;99.90;;;;;;5092047;28;20463;-69
2023/03/28 02:09:41;;;;;;;12.15;2.65;;;2.90;99.90;;;;;;5072469;28;20488;-70
2023/03/28 02:12:25;;;;;;;12.18;2.65;;;2.80;99.90;;;;;;5095134;28;20032;-70
2023/03/28 02:14:52;;;;;;;10.23;2.60;;;2.80;99.90;;;;;;5095156;28;20036;-70
2023/03/28 02:17:20;;;;;;;13.15;2.85;;;2.80;99.90;;;;;;5094883;28;20446;-70
2023/03/28 02:19:53;;;;;;;8.60;2.30;;;2.80;99.90;;;;;;5095648;28;20028;-70
2023/03/28 02:22:31;;;;;;;7.68;2.10;;;2.70;99.90;;;;;;5095616;28;20043;-70
2023/03/28 02:24:56;;;;;;;10.82;2.60;;;2.70;99.90;;;;;;5095918;28;20052;-70
2023/03/28 02:27:22;;;;;;;12.80;2.40;;;2.70;99.90;;;;;;5091875;28;20032;-70
2023/03/28 02:29:48;;;;;;;7.90;2.42;;;2.70;99.90;;;;;;5091244;28;20452;-70
2023/03/28 02:32:16;;;;;;;8.80;1.90;;;2.70;99.90;;;;;;5091723;28;20475;-70
2023/03/28 02:34:43;;;;;;;10.27;2.08;;;2.70;99.90;;;;;;5095415;28;20027;-70
2023/03/28 02:37:31;;;;;;;11.00;2.33;;;2.70;99.90;;;;;;5095238;28;20024;-69
2023/03/28 02:40:06;;;;;;;7.38;2.70;;;2.80;99.90;;;;;;5082247;28;20202;-70
2023/03/28 02:43:01;;;;;;;14.90;2.60;;;2.80;99.90;;;;;;5095163;28;20096;-69
2023/03/28 02:46:06;;;;;;;7.63;2.20;;;2.90;99.90;;;;;;5094684;28;20044;-69
2023/03/28 02:48:54;;;;;;;9.85;2.03;;;2.90;99.90;;;;;;5076728;28;20066;-70
2023/03/28 02:51:33;;;;;;;12.55;2.38;;;3.00;99.90;;;;;;5092256;28;20028;-70
2023/03/28 02:54:17;;;;;;;8.57;2.20;;;3.00;99.90;;;;;;5094001;28;20024;-69
2023/03/28 02:57:00;;;;;;;9.85;2.28;;;3.10;99.90;;;;;;5094155;28;20047;-70
2023/03/28 02:59:56;;;;;;;11.60;2.28;;;3.10;99.90;;;;;;5089133;28;20051;-70
2023/03/28 03:02:22;;;;;;;11.63;2.40;;;3.10;99.90;;;;;;5092902;28;20077;-70
2023/03/28 03:04:49;;;;;;;6.95;2.00;;;3.10;99.90;;;;;;5094254;28;20062;-70
2023/03/28 03:07:17;;;;;;;7.25;2.20;;;3.10;99.90;;;;;;5094768;28;20028;-70
2023/03/28 03:09:44;;;;;;;8.25;2.13;;;3.00;99.90;;;;;;5094131;28;20055;-70
2023/03/28 03:12:10;;;;;;;9.02;2.33;;;3.00;99.90;;;;;;5093508;28;20115;-70
2023/03/28 03:14:37;;;;;;;10.50;2.70;;;2.90;99.90;;;;;;5094816;28;20103;-70
2023/03/28 03:17:04;;;;;;;10.18;2.35;;;2.80;99.90;;;;;;5094256;28;20036;-70
2023/03/28 03:19:31;;;;;;;11.18;2.28;;;2.80;99.90;;;;;;5093628;28;20032;-71
2023/03/28 03:21:57;;;;;;;6.07;1.90;;;2.70;99.90;;;;;;5093968;28;20103;-70
2023/03/28 03:24:23;;;;;;;9.38;2.15;;;2.70;99.90;;;;;;5093971;28;20151;-70
2023/03/28 03:26:50;;;;;;;7.18;2.22;;;2.70;99.90;;;;;;5094416;28;20020;-70
2023/03/28 03:29:16;;;;;;;9.10;2.45;;;2.70;99.90;;;;;;5092246;28;20020;-70
2023/03/28 03:31:41;;;;;;;9.85;2.15;;;2.60;99.90;;;;;;5092392;28;20388;-70
2023/03/28 03:34:07;;;;;;;10.90;2.08;;;2.70;99.90;;;;;;5092719;28;20039;-71
2023/03/28 03:36:33;;;;;;;9.02;1.90;;;2.60;99.90;;;;;;5093793;28;20085;-70
2023/03/28 03:38:58;;;;;;;8.27;2.38;;;2.70;99.90;;;;;;5093777;28;20480;-71
2023/03/28 03:41:24;;;;;;;7.07;2.00;;;2.70;99.90;;;;;;5092886;28;20028;-70
2023/03/28 03:43:50;;;;;;;8.73;2.00;;;2.70;99.90;;;;;;5092835;28;20039;-71
2023/03/28 03:46:15;;;;;;;8.05;2.28;;;2.70;99.90;;;;;;5092170;28;20032;-71
2023/03/28 03:48:41;;;;;;;8.52;1.77;;;2.70;99.90;;;;;;5093393;28;20530;-71
2023/03/28 03:51:07;;;;;;;5.40;1.77;;;2.70;99.90;;;;;;5092882;28;20036;-71
2023/03/28 03:53:33;;;;;;;7.15;1.90;;;2.80;99.90;;;;;;5092923;28;20032;-71
2023/03/28 03:56:02;;;;;;;10.93;2.22;;;2.80;99.90;;;;;;5093529;28;20091;-71
2023/03/28 03:58:28;;;;;;;8.02;2.05;;;2.80;99.90;;;;;;5093248;28;20024;-71
2023/03/28 04:00:54;;;;;;;7.75;2.08;;;2.80;99.90;;;;;;5091969;28;20161;-71
2023/03/28 04:03:20;;;;;;;9.15;2.20;;;2.80;99.90;;;;;;5092612;28;20032;-71
2023/03/28 04:05:45;;;;;;;11.85;2.40;;;2.80;99.90;;;;;;5092916;28;20040;-71
2023/03/28 04:08:11;;;;;;;11.73;2.65;;;2.70;99.90;;;;;;5093100;28;20464;-71
2023/03/28 04:10:36;;;;;;;9.13;2.60;;;2.70;99.90;;;;;;5092998;28;20034;-71
2023/03/28 04:13:02;;;;;;;12.98;2.50;;;2.80;99.90;;;;;;5092831;28;20032;-71
2023/03/28 04:15:28;;;;;;;9.63;2.75;;;2.80;99.90;;;;;;5093198;28;20028;-71
2023/03/28 04:17:55;;;;;;;10.73;2.60;;;2.80;99.90;;;;;;5077053;28;20028;-71
2023/03/28 04:20:22;;;;;;;14.15;3.05;;;2.70;99.90;;;;;;5091393;28;20025;-71
2023/03/28 04:22:49;;;;;;;15.88;3.05;;;2.70;99.90;;;;;;5092270;28;20024;-71
2023/03/28 04:25:16;;;;;;;11.45;2.70;;;2.70;99.90;;;;;;5092934;28;20056;-71
2023/03/28 04:27:46;;;;;;;9.77;2.08;;;2.70;99.90;;;;;;5093190;28;20115;-71
2023/03/28 04:30:16;;;;;;;9.18;2.50;;;2.70;99.90;;;;;;5092443;28;20020;-71
2023/03/28 04:32:43;;;;;;;10.05;2.55;;;2.70;99.90;;;;;;5092700;28;20032;-71
2023/03/28 04:35:10;;;;;;;11.23;2.30;;;2.70;99.90;;;;;;5092385;28;20140;-71
2023/03/28 04:37:36;;;;;;;11.50;2.72;;;2.80;99.90;;;;;;5092398;28;20382;-71
2023/03/28 04:40:09;;;;;;;8.45;2.45;;;2.80;99.90;;;;;;5092746;28;20508;-71
2023/03/28 04:42:35;;;;;;;11.98;3.20;;;2.80;99.90;;;;;;5091699;28;20093;-71
2023/03/28 04:45:01;;;;;;;8.07;2.38;;;2.80;99.90;;;;;;5092884;28;20040;-71
2023/03/28 04:47:27;;;;;;;8.05;2.38;;;2.70;99.90;;;;;;5092830;28;20364;-71
2023/03/28 04:49:53;;;;;;;8.43;2.80;;;2.70;99.90;;;;;;5091816;28;20115;-71
2023/03/28 04:52:18;;;;;;;9.05;2.50;;;2.70;99.90;;;;;;5091803;28;20156;-71
2023/03/28 04:54:44;;;;;;;6.95;2.50;;;2.70;99.90;;;;;;5092021;28;20024;-71
2023/03/28 04:57:09;;;;;;;8.38;2.53;;;2.70;99.90;;;;;;5092791;28;20028;-71
2023/03/28 04:59:35;;;;;;;9.68;3.05;;;2.70;99.90;;;;;;5090790;28;20073;-71
2023/03/28 05:02:01;;;;;;;13.88;5.60;;;2.70;99.90;;;;;;5091361;28;20487;-71
2023/03/28 05:04:26;;;;;;;13.00;3.95;;;2.80;99.90;;;;;;5092732;28;20476;-71
2023/03/28 05:06:52;;;;;;;10.02;3.55;;;2.80;99.90;;;;;;5092073;28;20032;-71
2023/03/28 05:09:18;;;;;;;13.93;3.90;;;2.90;99.90;;;;;;5091532;28;20112;-71
2023/03/28 05:11:44;;;;;;;11.57;3.38;;;2.90;99.90;;;;;;5090739;28;20528;-71
2023/03/28 05:14:10;;;;;;;11.27;2.85;;;3.00;99.90;;;;;;5091654;28;20043;-71
2023/03/28 05:16:35;;;;;;;6.28;2.42;;;3.00;99.90;;;;;;5092218;28;20028;-70
2023/03/28 05:19:01;;;;;;;10.15;3.05;;;3.00;99.90;;;;;;5091319;28;20376;-71
2023/03/28 05:21:27;;;;;;;7.45;3.00;;;3.00;99.90;;;;;;5091772;28;20056;-70
2023/03/28 05:23:53;;;;;;;14.18;2.88;;;3.00;99.90;;;;;;5091427;28;20063;-70
2023/03/28 05:26:18;;;;;;;17.52;5.00;;;3.00;99.90;;;;;;5091661;28;20475;-70
2023/03/28 05:28:44;;;;;;;13.38;5.68;;;3.00;99.90;;;;;;5091634;28;20492;-70
2023/03/28 05:31:10;;;;;;;14.38;5.22;;;3.00;99.90;;;;;;5091836;28;20537;-71
2023/03/28 05:33:36;;;;;;;7.70;3.35;;;3.00;99.90;;;;;;5091510;28;20421;-70
2023/03/28 05:36:03;;;;;;;17.05;3.13;;;3.00;99.90;;;;;;5092021;28;20020;-70
2023/03/28 05:38:30;;;;;;;12.98;4.97;;;3.10;99.90;;;;;;5091073;28;20036;-70
2023/03/28 05:40:57;;;;;;;8.85;3.75;;;3.10;99.90;;;;;;5091151;28;20541;-70
2023/03/28 05:43:23;;;;;;;10.93;3.13;;;3.10;99.90;;;;;;5092122;28;20540;-70
2023/03/28 05:45:48;;;;;;;13.65;3.95;;;3.00;99.90;;;;;;5091256;28;20154;-70
2023/03/28 05:48:14;;;;;;;11.27;3.50;;;3.10;99.90;;;;;;5096464;28;20384;-70
2023/03/28 05:50:40;;;;;;;16.38;4.03;;;3.10;99.90;;;;;;5095000;28;20063;-70
2023/03/28 05:53:06;;;;;;;11.50;3.70;;;3.10;99.90;;;;;;5095681;28;20541;-70
2023/03/28 05:55:31;;;;;;;9.40;3.05;;;3.20;99.90;;;;;;5094223;28;20028;-70
2023/03/28 05:57:57;;;;;;;11.10;3.22;;;3.30;99.90;;;;;;5095651;28;20024;-70
2023/03/28 06:00:23;;;;;;;12.95;3.40;;;3.40;99.90;;;;;;5094560;28;20031;-70
2023/03/28 06:02:53;;;;;;;8.90;3.35;;;3.50;99.90;;;;;;5095446;28;20063;-70
2023/03/28 06:05:19;;;;;;;15.38;3.20;;;3.60;99.90;;;;;;5091650;28;20051;-70
2023/03/28 06:07:46;;;;;;;13.73;4.25;;;3.80;99.90;;;;;;5083089;28;20032;-70
2023/03/28 06:10:13;;;;;;;13.90;3.78;;;3.90;99.90;;;;;;5094787;28;20047;-70
2023/03/28 06:12:39;;;;;;;11.98;3.78;;;4.00;99.90;;;;;;5095025;28;20036;-70
2023/03/28 06:15:06;;;;;;;10.98;3.65;;;4.10;99.90;;;;;;5095286;28;20472;-70
2023/03/28 06:17:32;;;;;;;14.55;4.10;;;4.30;99.90;;;;;;5095323;28;20055;-70
2023/03/28 06:19:58;;;;;;;12.63;4.25;;;4.50;99.90;;;;;;5094371;28;20108;-70
2023/03/28 06:22:24;;;;;;;14.93;3.28;;;4.70;99.90;;;;;;5094401;28;20028;-70
2023/03/28 06:24:49;;;;;;;11.35;3.10;;;4.90;99.90;;;;;;5094491;28;20463;-70
2023/03/28 06:27:15;;;;;;;10.82;3.20;;;5.00;99.90;;;;;;5095371;28;20035;-70
2023/03/28 06:29:41;;;;;;;12.43;3.38;;;5.00;99.90;;;;;;5094590;28;20471;-70
2023/03/28 06:32:06;;;;;;;9.98;3.25;;;5.00;99.90;;;;;;5094349;28;20028;-70
2023/03/28 06:34:32;;;;;;;9.95;3.35;;;5.10;99.90;;;;;;5094324;28;20082;-70
2023/03/28 06:36:59;;;;;;;11.63;3.25;;;5.10;99.90;;;;;;5094057;28;20048;-70
2023/03/28 06:39:25;;;;;;;10.50;3.67;;;5.20;99.90;;;;;;5092793;28;20028;-70
2023/03/28 06:41:50;;;;;;;9.85;3.63;;;5.20;99.90;;;;;;5094196;28;20434;-71
2023/03/28 06:44:16;;;;;;;10.10;3.63;;;5.30;99.90;;;;;;5094836;28;20711;-70
2023/03/28 06:46:41;;;;;;;12.85;4.57;;;5.30;99.90;;;;;;5093736;28;20365;-70
2023/03/28 06:49:07;;;;;;;15.52;5.97;;;5.30;99.90;;;;;;5094623;28;20117;-70
2023/03/28 06:51:33;;;;;;;20.48;5.38;;;5.20;99.90;;;;;;5092875;28;20058;-70
2023/03/28 06:53:58;;;;;;;14.77;4.22;;;5.20;99.90;;;;;;5077287;28;20024;-70
2023/03/28 06:56:24;;;;;;;8.30;3.05;;;5.20;99.90;;;;;;5092791;28;20020;-70
2023/03/28 06:58:50;;;;;;;12.90;3.90;;;5.30;99.90;;;;;;5095040;28;20025;-70
2023/03/28 07:01:15;;;;;;;12.38;3.38;;;5.30;99.90;;;;;;5091855;28;20028;-70
2023/03/28 07:03:41;;;;;;;12.68;4.15;;;5.40;99.90;;;;;;5091929;28;20035;-71
2023/03/28 07:06:08;;;;;;;9.77;3.20;;;5.50;99.90;;;;;;5094126;28;20024;-70
2023/03/28 07:08:35;;;;;;;13.05;3.75;;;5.60;99.90;;;;;;5092379;28;20036;-70
2023/03/28 07:11:01;;;;;;;11.93;3.60;;;5.60;99.90;;;;;;5093209;28;20039;-70
2023/03/28 07:13:27;;;;;;;13.55;3.97;;;5.80;99.90;;;;;;5093472;28;20024;-70
2023/03/28 07:16:19;;;;;;;11.52;3.92;;;5.90;99.90;;;;;;5094126;28;20031;-71
2023/03/28 07:18:45;;;;;;;14.27;4.75;;;6.00;99.90;;;;;;5090421;28;20115;-70
2023/03/28 07:21:16;;;;;;;11.55;3.70;;;6.10;99.90;;;;;;5092425;28;20119;-70
2023/03/28 07:23:43;;;;;;;11.52;3.75;;;6.20;99.90;;;;;;5093294;28;20098;-70
2023/03/28 07:26:10;;;;;;;11.32;3.60;;;6.30;99.90;;;;;;5093092;28;20108;-70
2023/03/28 07:28:36;;;;;;;13.15;3.60;;;6.40;99.90;;;;;;5093694;28;20097;-71
2023/03/28 07:31:05;;;;;;;14.35;3.55;;;6.60;99.90;;;;;;5093106;28;20648;-70
2023/03/28 07:33:33;;;;;;;11.88;4.57;;;6.60;99.90;;;;;;5093287;28;20487;-70
2023/03/28 07:35:59;;;;;;;11.95;3.80;;;6.80;99.90;;;;;;5093853;28;20080;-70
2023/03/28 07:38:25;;;;;;;10.55;3.00;;;6.90;99.90;;;;;;5093564;28;20024;-70
2023/03/28 07:40:50;;;;;;;8.07;2.88;;;7.20;99.90;;;;;;5092851;28;20442;-71
2023/03/28 07:43:16;;;;;;;10.30;2.95;;;7.50;99.90;;;;;;5093910;28;20028;-70
2023/03/28 07:45:41;;;;;;;9.15;3.17;;;7.80;99.90;;;;;;5092808;28;20055;-70
2023/03/28 07:48:07;;;;;;;8.45;2.42;;;8.20;99.90;;;;;;5093458;28;20050;-70
2023/03/28 07:50:33;;;;;;;10.75;3.08;;;8.60;99.90;;;;;;5092451;28;20028;-70
2023/03/28 07:52:59;;;;;;;8.27;2.80;;;8.80;99.90;;;;;;5093219;28;20032;-70
2023/03/28 07:55:26;;;;;;;6.43;2.58;;;8.90;99.90;;;;;;5092903;28;20128;-71
2023/03/28 07:57:53;;;;;;;11.18;2.47;;;9.00;99.90;;;;;;5091574;28;20110;-70
2023/03/28 08:00:22;;;;;;;11.05;3.20;;;9.20;99.90;;;;;;5092458;28;20463;-71
2023/03/28 08:02:49;;;;;;;11.68;2.92;;;9.40;99.90;;;;;;5093287;28;20108;-70
2023/03/28 08:05:14;;;;;;;7.82;2.53;;;9.80;99.90;;;;;;5093343;28;20074;-70
2023/03/28 08:07:40;;;;;;;5.18;2.38;;;10.20;99.90;;;;;;5092994;28;20440;-70
2023/03/28 08:10:08;;;;;;;7.90;1.92;;;10.20;99.90;;;;;;5091818;28;20043;-70
2023/03/28 08:12:36;;;;;;;6.40;2.28;;;10.20;99.90;;;;;;5092710;28;20042;-70
2023/03/28 08:15:01;;;;;;;9.00;2.60;;;10.50;99.90;;;;;;5092571;28;20119;-70
2023/03/28 08:17:27;;;;;;;11.88;2.90;;;10.80;99.90;;;;;;5091323;28;20116;-70
2023/03/28 08:19:53;;;;;;;7.10;2.60;;;10.90;99.90;;;;;;5091315;28;20055;-70
2023/03/28 08:22:18;;;;;;;5.28;2.42;;;11.10;99.90;;;;;;5092199;28;20460;-70
2023/03/28 08:24:44;;;;;;;10.07;2.97;;;11.30;99.90;;;;;;5091999;28;20056;-70
2023/03/28 08:27:10;;;;;;;4.13;1.65;;;11.40;99.70;;;;;;5092150;28;20032;-70
2023/03/28 08:29:36;;;;;;;11.68;3.83;;;11.60;98.80;;;;;;5091945;28;20024;-70
2023/03/28 08:32:03;;;;;;;6.32;1.88;;;11.50;99.10;;;;;;5091974;28;20020;-69
2023/03/28 08:34:29;;;;;;;7.07;2.00;;;11.70;98.30;;;;;;5093245;28;20028;-70
2023/03/28 08:36:56;;;;;;;7.90;2.95;;;11.90;97.80;;;;;;5092798;28;20069;-71
2023/03/28 08:39:22;;;;;;;7.90;3.05;;;12.00;97.10;;;;;;5092244;28;20028;-70
2023/03/28 08:42:04;;;;;;;9.27;2.63;;;12.10;97.60;;;;;;5091767;28;20043;-70
2023/03/28 08:44:52;;;;;;;6.22;2.50;;;12.30;96.90;;;;;;5092567;28;20044;-71
2023/03/28 08:47:26;;;;;;;9.88;3.00;;;12.60;96.50;;;;;;5089993;28;20028;-70
2023/03/28 08:49:58;;;;;;;8.50;2.72;;;12.70;96.60;;;;;;5092580;28;20035;-70
2023/03/28 08:52:25;;;;;;;8.57;2.90;;;12.70;95.70;;;;;;5091707;28;20028;-70
2023/03/28 08:54:50;;;;;;;8.60;3.15;;;12.40;95.90;;;;;;5091963;28;20060;-70
2023/03/28 08:57:20;;;;;;;11.25;3.35;;;12.20;95.80;;;;;;5092070;28;20459;-70
2023/03/28 09:00:24;;;;;;;7.22;2.45;;;11.90;95.30;;;;;;5092408;28;20047;-70
2023/03/28 09:02:49;;;;;;;6.32;2.30;;;11.60;95.60;;;;;;5081693;28;20032;-70
2023/03/28 09:05:18;;;;;;;6.70;2.47;;;11.30;96.00;;;;;;5091847;28;20059;-70
2023/03/28 09:08:02;;;;;;;4.20;1.60;;;11.00;96.00;;;;;;5091787;28;20032;-70
2023/03/28 09:10:31;;;;;;;8.45;3.17;;;10.70;95.90;;;;;;5091565;28;20042;-70
2023/03/28 09:13:09;;;;;;;17.60;6.78;;;10.50;96.80;;;;;;5092122;28;20089;-70
2023/03/28 09:15:42;;;;;;;4.90;2.08;;;10.40;96.90;;;;;;5092477;28;20036;-70
2023/03/28 09:18:36;;;;;;;12.55;5.15;;;10.10;96.70;;;;;;5092619;28;20032;-69
2023/03/28 09:21:29;;;;;;;9.18;2.55;;;9.90;97.30;;;;;;5091757;28;20050;-70
2023/03/28 09:24:19;;;;;;;14.70;3.95;;;9.80;98.20;;;;;;5075421;28;20456;-70
2023/03/28 09:27:11;;;;;;;5.57;1.55;;;9.90;98.20;;;;;;5080718;28;20483;-70
2023/03/28 09:29:41;;;;;;;8.93;2.63;;;9.90;97.60;;;;;;5090731;28;20680;-70
2023/03/28 09:32:21;;;;;;;5.43;1.52;;;9.80;97.90;;;;;;5090745;28;20483;-68
2023/03/28 09:34:50;;;;;;;7.35;2.55;;;9.90;98.00;;;;;;5086396;28;20047;-70
2023/03/28 09:37:24;;;;;;;7.03;2.25;;;10.00;97.80;;;;;;5080226;28;20029;-67
2023/03/28 09:39:52;;;;;;;7.95;2.30;;;10.00;97.30;;;;;;5089388;28;20031;-70
2023/03/28 09:42:21;;;;;;;6.70;2.47;;;10.10;97.20;;;;;;5083350;28;20028;-69
2023/03/28 09:44:56;;;;;;;6.45;1.70;;;10.10;97.50;;;;;;5086382;28;20039;-69
2023/03/28 09:47:22;;;;;;;8.85;2.90;;;10.20;96.90;;;;;;5084730;28;20030;-69
2023/03/28 09:49:47;;;;;;;8.25;2.50;;;10.20;96.70;;;;;;5090791;28;20024;-69
2023/03/28 09:52:20;;;;;;;6.47;2.53;;;10.30;97.70;;;;;;5090699;28;20036;-68
2023/03/28 09:54:47;;;;;;;6.15;2.10;;;10.50;96.30;;;;;;5091330;28;20075;-68
2023/03/28 09:57:13;;;;;;;7.53;2.42;;;10.70;95.70;;;;;;5086568;28;20039;-69
2023/03/28 09:59:38;;;;;;;8.93;2.45;;;10.60;96.10;;;;;;5087290;28;20032;-69
2023/03/28 10:02:22;;;;;;;2.50;1.70;;;10.70;95.70;;;;;;5089831;28;20028;-69
2023/03/28 10:04:47;;;;;;;6.38;1.73;;;10.60;96.00;;;;;;5090694;28;20036;-68
2023/03/28 10:07:13;;;;;;;8.13;2.22;;;10.60;95.40;;;;;;5090832;28;20032;-68
2023/03/28 10:09:49;;;;;;;6.07;2.05;;;10.50;95.80;;;;;;5090490;28;20046;-69
2023/03/28 10:12:21;;;;;;;12.82;4.70;;;10.40;95.30;;;;;;5084846;28;20648;-68
2023/03/28 10:14:47;;;;;;;10.30;3.63;;;10.30;96.20;;;;;;5090022;28;20039;-68
2023/03/28 10:17:36;;;;;;;4.57;2.40;;;10.20;95.60;;;;;;5085892;28;20380;-69
2023/03/28 10:20:06;;;;;;;7.05;2.63;;;10.20;95.70;;;;;;5085787;28;20102;-70
2023/03/28 10:22:36;;;;;;;10.55;3.03;;;10.30;95.40;;;;;;5092177;28;20032;-68
2023/03/28 10:25:07;;;;;;;6.50;3.10;;;10.20;95.50;;;;;;5091219;28;20058;-68
2023/03/28 10:27:38;;;;;;;14.43;4.60;;;10.30;95.70;;;;;;5091094;28;20028;-68
2023/03/28 10:30:16;;;;;;;7.88;2.70;;;10.40;96.00;;;;;;5083989;28;20033;-68
2023/03/28 10:32:41;;;;;;;6.00;2.15;;;10.60;95.30;;;;;;5080523;28;20391;-68
2023/03/28 10:35:33;;;;;;;9.60;3.25;;;10.70;95.00;;;;;;5095085;28;20028;-68
2023/03/28 10:38:02;;;;;;;11.88;4.28;;;10.80;95.30;;;;;;5085278;28;20114;-69
2023/03/28 10:40:29;;;;;;;11.93;3.30;;;11.00;94.30;;;;;;5092159;28;20519;-69
2023/03/28 10:42:56;;;;;;;12.02;4.15;;;11.40;94.10;;;;;;5082282;28;20404;-69
2023/03/28 10:45:40;;;;;;;6.15;2.28;;;11.70;92.40;;;;;;5089660;28;20193;-68
2023/03/28 10:48:19;;;;;;;13.73;4.63;;;12.00;92.20;;;;;;5096687;28;20388;-68
2023/03/28 10:50:53;;;;;;;8.32;2.25;;;12.00;92.80;;;;;;5090113;28;20032;-69
2023/03/28 10:53:33;;;;;;;12.07;4.28;;;12.20;92.00;;;;;;5092657;28;20066;-69
2023/03/28 10:56:17;;;;;;;7.82;3.30;;;12.80;92.40;;;;;;5093004;28;20432;-68
2023/03/28 10:59:11;;;;;;;9.13;3.50;;;13.20;91.40;;;;;;5094368;28;20031;-69
2023/03/28 11:02:13;;;;;;;7.68;3.65;;;13.60;91.00;;;;;;5091019;28;20024;-69
2023/03/28 11:04:57;;;;;;;9.60;3.17;;;14.20;90.30;;;;;;5093522;28;20044;-69
2023/03/28 11:07:43;;;;;;;7.93;2.75;;;14.50;87.00;;;;;;5085405;28;20035;-68
2023/03/28 11:10:41;;;;;;;9.75;3.05;;;14.50;85.60;;;;;;5077962;28;20033;-69
2023/03/28 11:13:13;;;;;;;8.50;2.28;;;14.50;84.30;;;;;;5082699;28;20111;-68
2023/03/28 11:15:45;;;;;;;10.00;2.70;;;14.00;85.40;;;;;;5093440;28;20039;-68
2023/03/28 11:18:32;;;;;;;9.98;3.15;;;13.90;86.60;;;;;;5093506;28;20023;-69
2023/03/28 11:21:15;;;;;;;7.63;2.80;;;13.90;87.60;;;;;;5092873;28;20028;-68
2023/03/28 11:23:45;;;;;;;5.47;2.28;;;13.90;86.50;;;;;;5086387;28;20075;-68
2023/03/28 11:26:14;;;;;;;7.53;2.33;;;13.60;86.80;;;;;;5092230;28;20032;-68
2023/03/28 11:29:05;;;;;;;4.22;2.00;;;13.00;85.50;;;;;;5093912;28;20028;-68
2023/03/28 11:31:43;;;;;;;6.60;1.95;;;12.40;86.30;;;;;;5086982;28;20046;-68
2023/03/28 11:34:43;;;;;;;6.80;2.00;;;12.10;87.60;;;;;;5083606;28;20118;-68
2023/03/28 11:37:19;;;;;;;4.47;1.53;;;11.70;87.10;;;;;;5085142;28;20111;-68
2023/03/28 11:40:11;;;;;;;6.78;1.88;;;11.30;89.00;;;;;;5087816;28;20110;-69
2023/03/28 11:42:42;;;;;;;8.05;2.45;;;10.90;90.00;;;;;;5090483;28;20043;-68
2023/03/28 11:45:19;;;;;;;4.28;1.45;;;10.80;90.10;;;;;;5087459;28;20040;-68
2023/03/28 11:48:09;;;;;;;6.00;1.63;;;10.80;89.40;;;;;;5093205;28;20107;-68
2023/03/28 11:50:52;;;;;;;5.68;1.60;;;10.50;87.60;;;;;;5075424;28;20036;-68
2023/03/28 11:53:25;;;;;;;3.08;1.60;;;10.40;88.20;;;;;;5087508;28;20054;-68
2023/03/28 11:56:18;;;;;;;6.60;2.13;;;10.20;88.50;;;;;;5092362;28;20138;-68
2023/03/28 11:58:47;;;;;;;5.95;1.95;;;10.00;88.90;;;;;;5083561;28;20024;-68
2023/03/28 12:01:24;;;;;;;7.75;2.08;;;9.90;90.20;;;;;;5079346;28;20378;-68
2023/03/28 12:04:08;;;;;;;5.30;1.58;;;9.90;90.30;;;;;;5093050;28;20361;-68
2023/03/28 12:07:09;;;;;;;7.60;1.80;;;9.80;90.40;;;;;;5093911;28;20036;-68
2023/03/28 12:09:43;;;;;;;3.28;1.15;;;9.80;90.30;;;;;;5082573;28;20440;-68
2023/03/28 12:12:14;;;;;;;4.88;1.63;;;10.00;90.50;;;;;;5083861;28;20103;-68
2023/03/28 12:14:52;;;;;;;4.07;2.07;;;10.00;90.00;;;;;;5081537;28;20085;-68
2023/03/28 12:17:29;;;;;;;5.55;1.90;;;10.10;90.30;;;;;;5080340;28;20130;-68
2023/03/28 12:19:55;;;;;;;4.35;1.95;;;10.10;91.00;;;;;;5086081;28;20035;-69
2023/03/28 12:22:33;;;;;;;5.72;2.20;;;10.30;91.20;;;;;;5090813;28;20207;-68
2023/03/28 12:25:06;;;;;;;4.93;2.35;;;10.50;91.20;;;;;;5087609;28;20070;-69
2023/03/28 12:27:54;;;;;;;7.82;2.85;;;10.70;90.80;;;;;;5078977;28;20036;-68
2023/03/28 12:30:39;;;;;;;11.43;3.22;;;10.70;90.40;;;;;;5091415;28;20102;-68
2023/03/28 12:33:30;;;;;;;12.07;3.50;;;10.90;90.40;;;;;;5087552;28;20111;-68
2023/03/28 12:36:07;;;;;;;9.07;3.00;;;11.00;90.70;;;;;;5074704;28;20442;-67
2023/03/28 12:38:44;;;;;;;14.57;4.13;;;11.20;90.90;;;;;;5092517;28;20453;-69
2023/03/28 12:41:16;;;;;;;13.93;4.05;;;11.30;90.70;;;;;;5091539;28;20054;-68
2023/03/28 12:43:45;;;;;;;10.82;3.95;;;11.10;90.80;;;;;;5079950;28;20107;-68
2023/03/28 12:46:14;;;;;;;8.15;2.67;;;10.90;91.30;;;;;;5092456;28;20438;-68
2023/03/28 12:48:50;;;;;;;14.70;4.45;;;10.70;91.00;;;;;;5088090;28;20035;-68
2023/03/28 12:51:38;;;;;;;16.95;4.00;;;10.40;91.30;;;;;;5091852;28;20425;-68
2023/03/28 12:54:16;;;;;;;7.30;2.75;;;10.20;91.80;;;;;;5069291;28;20136;-67
2023/03/28 12:56:46;;;;;;;12.20;3.72;;;10.00;91.90;;;;;;5084396;28;20050;-68
2023/03/28 12:59:37;;;;;;;9.13;3.22;;;9.80;92.60;;;;;;5091421;28;20451;-68
2023/03/28 13:02:34;;;;;;;9.90;4.05;;;9.80;92.40;;;;;;5084385;28;20024;-68
2023/03/28 13:05:40;;;;;;;13.32;3.53;;;9.80;92.70;;;;;;5088620;28;20039;-68
2023/03/28 13:08:24;;;;;;;11.27;3.15;;;9.90;93.10;;;;;;5084869;28;20472;-69
2023/03/28 13:11:01;;;;;;;10.27;3.08;;;10.00;93.00;;;;;;5083634;28;20119;-69
2023/03/28 13:13:53;;;;;;;8.88;2.45;;;10.30;92.90;;;;;;5095655;28;20047;-68